Vintage, Pennsylvania
Current Conditions -  °F | °C
As of 6:15 AM on Sunday 28 Dec 2014 (Local Time) from KMQS Reporting Station
Overcast Overcast  
Wind Chill: 45°   Ceiling: 6000
Heat Index: 45°   Visibility: 10mi
Dew Point: 41°   Wind: 3mph
Humidity: 87%   Direction: 260°W
Pressure: 29.92"   Gusts: NA
Location:  39.9757°N, 76.0913°W
Report Text: KMQS 281115Z AUTO 26003KT 10SM BKN060 BKN070 OVC100 07/05 A2992 RMK AO2
Loading
Personal Weather Stations






























Interactive Weather Map New forecast layout! Learn more

10-Day Weather Forecast

Advertisements
Track Severe Weather on mobile